Flight Track Log - Related Links

Times and Time Zones

All times are in EST time to prevent confusion due to time zone crossing. See the ERR707 flight status page for this flight to view local times or setup timezone preferences in your user account.

Time Position Orientation Groundspeed Altitude Reporting Facility
EST Latitude Longitude Course Direction KTS MPH feet Rate Location/Type
Wed 10:49:50 PM 64.7667 -148.0167 237° Southwest 170 196 4,200  Level Anchorage Center
Wed 10:50:50 PM 64.7333 -148.1000 227° Southwest 170 196 6,000 1,850 Climbing Anchorage Center
Wed 10:51:50 PM 64.7000 -148.1833 227° Southwest 180 207 7,900 1,736 Climbing Anchorage Center
Wed 10:52:51 PM 64.6500 -148.2500 210° Southwest 180 207 9,500 1,686 Climbing Anchorage Center
Wed 10:53:51 PM 64.6167 -148.3167 221° Southwest 190 219 11,300 1,750 Climbing Anchorage Center
Wed 10:54:00 PM 64.4739 -148.0821 216° Southwest  Level Estimated
Wed 10:54:51 PM 64.5667 -148.3667 203° Southwest 190 219 13,000  Level Anchorage Center
Wed 10:55:00 PM 64.4419 -148.1974 237° Southwest  Level FlightAware Approximate
Wed 10:55:52 PM 64.5167 -148.4000 196° South 190 219 14,600  Level Anchorage Center
Wed 10:56:52 PM 64.4667 -148.4500 203° Southwest 190 219 16,000 1,339 Climbing Anchorage Center
Wed 10:57:53 PM 64.4167 -148.4833 196° South 190 219 17,300 1,537 Climbing Anchorage Center
Wed 10:58:53 PM 64.3667 -148.5333 203° Southwest 200 230 19,100 1,650 Climbing Anchorage Center
Wed 10:59:53 PM 64.3167 -148.5667 196° South 190 219 20,600 942 Climbing Anchorage Center
Wed 11:00:54 PM 64.2667 -148.6167 203° Southwest 210 242 21,000 198 Climbing Anchorage Center
Wed 11:01:54 PM 64.2000 -148.6667 198° South 240 276 21,000  Level Anchorage Center
Wed 11:02:54 PM 64.1333 -148.7167 198° South 250 288 21,000  Level Anchorage Center
Wed 11:03:55 PM 64.0667 -148.7667 198° South 250 288 21,000  Level Anchorage Center
Wed 11:04:55 PM 64.0000 -148.8167 198° South 250 288 21,000  Level Anchorage Center
Wed 11:05:55 PM 63.9167 -148.8667 195° South 260 299 21,000  Level Anchorage Center
Wed 11:06:56 PM 63.8667 -148.9167 204° Southwest 260 299 21,000  Level Anchorage Center
Wed 11:07:56 PM 63.7833 -148.9667 195° South 260 299 21,000  Level Anchorage Center
Wed 11:08:56 PM 63.7167 -149.0167 198° South 260 299 21,000  Level Anchorage Center
Wed 11:09:57 PM 63.6500 -149.0667 198° South 270 311 21,000  Level Anchorage Center
Wed 11:10:57 PM 63.5833 -149.1167 198° South 250 288 21,000  Level Anchorage Center
Wed 11:11:57 PM 63.5167 -149.1667 198° South 250 288 21,000  Level Anchorage Center
Wed 11:12:58 PM 63.4500 -149.2167 199° South 260 299 21,000  Level Anchorage Center
Wed 11:13:58 PM 63.3833 -149.2667 199° South 250 288 21,000  Level Anchorage Center
Wed 11:14:58 PM 63.3167 -149.3167 199° South 250 288 21,000  Level Anchorage Center
Wed 11:15:59 PM 63.2500 -149.3667 199° South 250 288 21,000  Level Anchorage Center
Wed 11:16:59 PM 63.2000 -149.4167 204° Southwest 240 276 21,000  Level Anchorage Center
Wed 11:17:59 PM 63.1167 -149.4833 200° South 270 311 21,000  Level Anchorage Center
Wed 11:19:00 PM 63.0333 -149.5167 190° South 250 288 21,000  Level Anchorage Center
Wed 11:20:00 PM 62.9667 -149.5667 199° South 250 288 21,000  Level Anchorage Center
Wed 11:21:01 PM 62.9000 -149.6167 199° South 250 288 21,000  Level Anchorage Center
Wed 11:22:01 PM 62.8333 -149.6667 199° South 250 288 21,000  Level Anchorage Center
Wed 11:23:01 PM 62.7667 -149.7167 199° South 250 288 21,000  Level Anchorage Center
Wed 11:24:02 PM 62.7000 -149.7667 199° South 250 288 21,000  Level Anchorage Center
Wed 11:25:02 PM 62.6333 -149.8000 193° South 260 299 21,000  Level Anchorage Center
Wed 11:26:02 PM 62.5667 -149.8500 199° South 260 299 21,000  Level Anchorage Center
Wed 11:27:03 PM 62.5000 -149.9000 199° South 250 288 21,000  Level Anchorage Center
Wed 11:28:03 PM 62.4333 -149.9500 199° South 250 288 21,000  Level Anchorage Center
Wed 11:29:03 PM 62.3667 -149.9833 193° South 250 288 21,000 -496 Level Anchorage Center
Wed 11:30:04 PM 62.3000 -150.0333 199° South 260 299 20,000 -1,140 Descending Anchorage Center
Wed 11:31:04 PM 62.2167 -150.0833 196° South 270 311 18,700 -1,650 Descending Anchorage Center
Wed 11:32:04 PM 62.1500 -150.1333 199° South 260 299 16,700 -1,537 Descending Anchorage Center
Wed 11:33:05 PM 62.0833 -150.1833 199° South 270 311 15,600 -1,240 Descending Anchorage Center
Wed 11:34:05 PM 62.0167 -150.2333 199° South 270 311 14,200 -1,240 Descending Anchorage Center
Wed 11:35:06 PM 61.9333 -150.2667 191° South 270 311 13,100 -1,082 Descending Anchorage Center
Wed 11:37:00 PM 61.8194 -150.3539 198° South  Level FlightAware Approximate
Wed 11:44:00 PM 61.4026 -150.2171 157° South  Level FlightAware Approximate
Wed 11:45:00 PM 61.3448 -150.1615 154° Southeast  Level FlightAware Approximate
Wed 11:46:00 PM 61.2907 -150.0958 159° South  Level FlightAware Approximate
Wed 11:47:00 PM 61.2313 -150.0479 154° Southeast  Level FlightAware Approximate
Wed 11:48:00 PM 61.1739 -149.9906 154° Southeast  Level FlightAware Approximate
Wed 11:49:00 PM 61.1667 -149.9833 154° Southeast  Level FlightAware Approximate
Wed 11:50:00 PM 61.1741 -149.9982 154° Southeast  Level Estimated
Wed 11:51:00 PM 61.1741 -149.9982 154° Southeast  Level Estimated
Wed 11:52:00 PM 61.1741 -149.9982 154° Southeast  Level Estimated
Wed 11:53:00 PM 61.1741 -149.9982 154° Southeast  Level Estimated
Wed 11:54:00 PM 61.1741 -149.9982 154° Southeast  Level Estimated
Wed 11:55:00 PM 61.1741 -149.9982 154° Southeast  Level Estimated
Wed 11:56:00 PM 61.1741 -149.9982 154° Southeast  Level Estimated
Wed 11:57:00 PM 61.1741 -149.9982 154° Southeast  Level Estimated
Wed 11:58:00 PM 61.1741 -149.9982 154° Southeast  Level Estimated
Wed 11:59:00 PM 61.1741 -149.9982 154° Southeast  Level Estimated
Thu 12:00:00 AM 61.1741 -149.9982 154° Southeast  Level Estimated
Thu 12:01:00 AM 61.1741 -149.9982 154° Southeast  Level Estimated
Thu 12:02:00 AM 61.1741 -149.9982 154° Southeast  Level Estimated
Thu 12:03:00 AM 61.1741 -149.9982 154° Southeast  Level Estimated
Thu 12:04:00 AM 61.1741 -149.9982 154° Southeast  Level Estimated
Thu 12:05:00 AM 61.1741 -149.9982 154° Southeast  Level Estimated

Login

Don't have an account? Register now (free) for customized features, flight alerts, and more!